Flight Track Log - Related Links

Times and Time Zones

All times are in EDT time to prevent confusion due to time zone crossing. See the N27MT flight status page for this flight to view local times or setup timezone preferences in your user account.

Time Position Orientation Groundspeed Altitude Reporting Facility
EDT Latitude Longitude Course Direction KTS MPH feet Rate Location/Type
Sun 12:20:00 PM 41.3530 -83.8561 189° South  Level FlightAware Approximate
Sun 12:21:00 PM 41.3067 -83.8653 189° South  Level FlightAware Approximate
Sun 12:22:00 PM 41.2644 -83.8881 191° South  Level FlightAware Approximate
Sun 12:22:24 PM 41.2730 -83.9130 191° South 142 163  Level FlightAware ADS-B
Sun 12:22:59 PM 41.2490 -83.9200 192° South 140 161  Level FlightAware ADS-B
Sun 12:23:00 PM 41.2184 -83.8997 191° South  Level FlightAware Approximate
Sun 12:23:35 PM 41.2250 -83.9260 191° South 140 161  Level FlightAware ADS-B
Sun 12:24:02 PM 41.2070 -83.9300 189° South 141 162  Level FlightAware ADS-B
Sun 12:24:28 PM 41.1910 -83.9340 191° South 142 163  Level FlightAware ADS-B
Sun 12:24:56 PM 41.1730 -83.9390 192° South 150 173  Level FlightAware ADS-B
Sun 12:25:25 PM 41.1520 -83.9440 190° South 163 188  Level FlightAware ADS-B
Sun 12:25:37 PM 41.1420 -83.9460 189° South 165 190  Level FlightAware ADS-B
Sun 12:26:06 PM 41.1200 -83.9510 190° South 167 192  Level FlightAware ADS-B
Sun 12:26:36 PM 41.0970 -83.9570 191° South 169 194  Level FlightAware ADS-B
Sun 12:27:04 PM 41.0750 -83.9620 190° South 170 196  Level FlightAware ADS-B
Sun 12:27:33 PM 41.0530 -83.9660 188° South 172 198  Level FlightAware ADS-B
Sun 12:28:00 PM 41.0320 -83.9710 190° South 171 197  Level FlightAware ADS-B
Sun 12:28:28 PM 41.0100 -83.9760 190° South 171 197  Level FlightAware ADS-B
Sun 12:28:54 PM 40.9890 -83.9810 190° South 171 197  Level FlightAware ADS-B
Sun 12:29:23 PM 40.9670 -83.9860 190° South 173 199  Level FlightAware ADS-B
Sun 12:29:53 PM 40.9430 -83.9920 191° South 171 197  Level FlightAware ADS-B
Sun 12:30:16 PM 40.9250 -83.9960 190° South 171 197  Level FlightAware ADS-B
Sun 12:30:40 PM 40.9060 -84.0010 191° South 174 200  Level FlightAware ADS-B
Sun 12:30:56 PM 40.8930 -84.0040 190° South 172 198  Level FlightAware ADS-B
Sun 12:31:23 PM 40.8720 -84.0090 190° South 174 200  Level FlightAware ADS-B
Sun 12:31:52 PM 40.8490 -84.0140 189° South 174 200  Level FlightAware ADS-B
Sun 12:32:18 PM 40.8280 -84.0190 190° South 174 200  Level FlightAware ADS-B
Sun 12:32:44 PM 40.8070 -84.0240 190° South 173 199  Level FlightAware ADS-B
Sun 12:33:16 PM 40.7820 -84.0300 190° South 172 198  Level FlightAware ADS-B
Sun 12:33:29 PM 40.7720 -84.0320 189° South 171 197  Level FlightAware ADS-B
Sun 12:33:57 PM 40.7500 -84.0370 190° South 171 197  Level FlightAware ADS-B
Sun 12:34:33 PM 40.7220 -84.0440 191° South 172 198  Level FlightAware ADS-B
Sun 12:35:01 PM 40.7000 -84.0490 190° South 172 198  Level FlightAware ADS-B
Sun 12:35:30 PM 40.6770 -84.0540 189° South 171 197  Level FlightAware ADS-B
Sun 12:35:58 PM 40.6550 -84.0600 192° South 172 198  Level FlightAware ADS-B
Sun 12:36:26 PM 40.6320 -84.0650 189° South 172 198  Level FlightAware ADS-B
Sun 12:36:49 PM 40.6150 -84.0690 190° South 174 200  Level FlightAware ADS-B
Sun 12:37:05 PM 40.6020 -84.0720 190° South 176 203  Level FlightAware ADS-B
Sun 12:37:33 PM 40.5800 -84.0770 190° South 175 201  Level FlightAware ADS-B
Sun 12:38:00 PM 40.5580 -84.0740 174° South 179 206  Level FlightAware ADS-B
Sun 12:38:32 PM 40.5310 -84.0670 169° South 177 204  Level FlightAware ADS-B
Sun 12:38:57 PM 40.5110 -84.0610 167° South 178 205  Level FlightAware ADS-B
Sun 12:39:21 PM 40.4920 -84.0550 166° South 178 205  Level FlightAware ADS-B
Sun 12:39:41 PM 40.4760 -84.0500 167° South 177 204  Level FlightAware ADS-B
Sun 12:40:09 PM 40.4530 -84.0430 167° South 178 205  Level FlightAware ADS-B
Sun 12:40:36 PM 40.4310 -84.0370 168° South 177 204  Level FlightAware ADS-B
Sun 12:41:02 PM 40.4100 -84.0300 166° South 179 206  Level FlightAware ADS-B
Sun 12:41:31 PM 40.3870 -84.0240 169° South 178 205  Level FlightAware ADS-B
Sun 12:41:56 PM 40.3710 -84.0190 167° South 179 206  Level FlightAware ADS-B
Sun 12:42:11 PM 40.3550 -84.0140 167° South 180 207  Level FlightAware ADS-B
Sun 12:42:44 PM 40.3280 -84.0070 169° South 178 205  Level FlightAware ADS-B
Sun 12:43:12 PM 40.3050 -84.0040 174° South 176 203  Level FlightAware ADS-B
Sun 12:43:37 PM 40.2850 -84.0030 178° South 175 201  Level FlightAware ADS-B
Sun 12:43:47 PM 40.2770 -84.0020 175° South 175 201  Level FlightAware ADS-B
Sun 12:44:07 PM 40.2600 -84.0020 180° South 176 203  Level FlightAware ADS-B
Sun 12:44:33 PM 40.2390 -84.0010 178° South 175 201  Level FlightAware ADS-B
Sun 12:44:47 PM 40.2280 -84.0010 180° South 174 200  Level FlightAware ADS-B
Sun 12:45:09 PM 40.2110 -84.0000 177° South 173 199  Level FlightAware ADS-B
Sun 12:45:31 PM 40.1930 -84.0000 180° South 174 200  Level FlightAware ADS-B
Sun 12:46:02 PM 40.1690 -84.0080 194° South 173 199  Level FlightAware ADS-B
Sun 12:46:35 PM 40.1430 -84.0180 196° South 173 199  Level FlightAware ADS-B
Sun 12:46:43 PM 40.1370 -84.0200 194° South 172 198  Level FlightAware ADS-B
Sun 12:47:16 PM 40.1130 -84.0280 194° South 172 198  Level FlightAware ADS-B
Sun 12:47:25 PM 40.1070 -84.0300 194° South 172 198  Level FlightAware ADS-B
Sun 12:48:25 PM 40.0580 -84.0500 197° South 172 198  Level FlightAware ADS-B
Sun 12:48:53 PM 40.0380 -84.0570 195° South 172 198  Level FlightAware ADS-B
Sun 12:49:23 PM 40.0140 -84.0660 196° South 170 196  Level FlightAware ADS-B
Sun 12:49:59 PM 39.9870 -84.0770 197° South 172 198  Level FlightAware ADS-B
Sun 12:50:27 PM 39.9660 -84.0850 196° South 170 196  Level FlightAware ADS-B
Sun 12:51:08 PM 39.9340 -84.0970 196° South 172 198  Level FlightAware ADS-B
Sun 12:51:34 PM 39.9140 -84.1050 197° South 171 197  Level FlightAware ADS-B

Login

Don't have an account? Register now (free) for customized features, flight alerts, and more!